Hauptseite
METAR-TAF:

METAR-TAF

Flughäfen :

Flughafen Žilina

Žilina, Slowakei

Breite: 49-14N, Länge: 018-36-49E, Höhe: 312 m

Beobachtung

Neuester Wetterbericht von vor 32 Minuten, um 00:00 UTC
Wind 1 kt aus unterschiedlichen Richtungen
Temperatur 17°C
Luftfeuchtigkeit 88%
Luftdruck 1019 hPa
Sichtweite 10 km oder mehr
Leicht bewölkt in der Höhe von 5200 ft

METAR: LZZI 210000Z VRB01KT 9999 FEW052 17/15 Q1019

Zeit: 02:32 (00:32 UTC)

Prognose

Neuester Wetterbericht von vor 1 Stunde und 32 Minuten, um 23:00 UTC
Gültige Prognose vom 21 um 00 UTC bis 21 um 09 UTC
Wind 2 kt aus unterschiedlichen Richtungen
Sichtweite 10 km oder mehr
keine Wolken unter 1500 m und keine Kumulonimbus oder Gewitterwolken
Übergehend zu
vom 21 um 07 UTC bis 21 um 09 UTC
Wind 6 kt aus West/Südwest
Sichtweite 10 km oder mehr
Aufgelockert bewölkt in der Höhe von 4200 ft

TAF: LZZI 202300Z 2100/2109 VRB02KT CAVOK BECMG 2107/2109 25006KT 9999 SCT042

Wetterbeobachtungen und Prognosen von mehr als 4000 Flughäfen (METAR und TAF Bericht).

Die verfügbaren Stationen werden durch gelbe und rote Markierungen auf der Karte dargestellt.

Führen Sie die Maus auf sie, um den Namen der Station zu sehen.

Darauf klicken, um die Beobachtung von Wetterbeobachtungen und Prognosen zu sehen.

Um die Karte zu ändern : klicken Sie auf den grünen Tasten mit einem schwarzen Kreuz Zum Vergrößern, auf den grünen Button mit einem Gedankenstrich zu verkleinern, oder auf die grünen Pfeile für benachbarte Karten.


METAR-TAF: